Latest Weather Observations for Tamworth Airport

IDN60801

Issued at 8:03 am EST Friday 29 July 2016 (issued every 30 minutes, with the page automatically refreshed every 10 minutes)

About weather observations | Map of weather stations | Latest weather observations for NSW | Other Formats
Station Details ID: 055325 Name: TAMWORTH AIRPORT AWS Lat: -31.07 Lon: 150.84 Height: 394.9 m
Data from the previous 72 hours. | See also: Recent months at Tamworth Airport
Date/Time
EST
Temp
°C
App
Temp
°C
Dew
Point
°C
Rel
Hum
%
Delta-T
°C
Wind Press
QNH
hPa
Press
MSL
hPa
Rain since
9am
mm
Dir  Spd
km/h
Gust
km/h
Spd
kts
Gust
kts
29/08:00am 3.6 0.3 2.4 92 0.5 SE 9 13 5 7 1025.2 1025.7 0.0
29/07:30am 1.5 -2.1 0.3 92 0.5 SE 9 11 5 6 1025.2 1025.7 0.0
29/07:00am -1.2 -4.6 -2.3 92 0.3 ESE 6 7 3 4 1025.1 1025.6 0.0
29/06:30am -2.5 -6.3 -3.6 92 0.3 SSW 7 9 4 5 1024.8 1025.2 0.0
29/06:10am -2.1 -5.8 -3.2 92 0.3 SSW 7 7 4 4 1024.6 1025.0 0.0
29/06:00am -1.5 -5.0 -2.6 92 0.3 S 6 7 3 4 1024.5 1024.9 0.0
29/05:30am -2.3 -5.9 -3.4 92 0.3 ESE 6 7 3 4 1024.5 1024.9 0.0
29/05:00am -0.4 -3.7 -1.5 92 0.4 SSE 6 7 3 4 1024.5 1024.9 0.0
29/04:52am -1.3 -4.7 -2.4 92 0.3 S 6 7 3 4 1024.4 1024.8 0.0
29/04:30am -1.4 -5.1 -2.5 92 0.3 SE 7 7 4 4 1024.3 1024.7 0.0
29/04:00am -0.4 -2.6 -1.5 92 0.4 CALM 0 0 0 0 1024.1 1024.5 0.0
29/03:30am -0.4 -2.6 -1.5 92 0.4 CALM 0 0 0 0 1024.2 1024.6 0.0
29/03:19am -1.3 -3.6 -2.6 91 0.4 CALM 0 0 0 0 1024.3 1024.7 0.0
29/03:00am -1.2 -3.5 -2.5 91 0.4 CALM 0 0 0 0 1024.2 1024.6 0.0
29/02:34am 2.1 0.3 0.9 92 0.5 CALM 0 4 0 2 1024.1 1024.5 0.0
29/02:30am 2.1 -0.1 0.9 92 0.5 SSW 2 6 1 3 1024.1 1024.5 0.0
29/02:01am 0.6 -2.6 -0.7 91 0.5 SSW 6 9 3 5 1024.1 1024.5 0.0
29/02:00am 0.6 -2.2 -0.7 91 0.5 SSW 4 9 2 5 1024.1 1024.5 0.0
29/01:30am 1.4 -0.6 0.1 91 0.5 CALM 0 0 0 0 1024.0 1024.4 0.0
29/01:00am 2.1 0.2 0.8 91 0.5 CALM 0 0 0 0 1024.1 1024.5 0.0
29/12:59am 2.0 0.1 0.5 90 0.6 CALM 0 0 0 0 1024.1 1024.5 0.0
29/12:30am 1.0 -1.1 -0.8 88 0.7 CALM 0 0 0 0 1024.3 1024.7 0.0
29/12:00am 1.8 -1.3 -0.1 87 0.7 E 6 7 3 4 1024.3 1024.7 0.0
 
Date/Time
EST
Temp
°C
App
Temp
°C
Dew
Point
°C
Rel
Hum
%
Delta-T
°C
Wind Press
QNH
hPa
Press
MSL
hPa
Rain since
9am
mm
Dir  Spd
km/h
Gust
km/h
Spd
kts
Gust
kts
28/11:30pm 2.3 -0.8 0.2 86 0.8 SSE 6 9 3 5 1024.5 1024.9 0.0
28/11:00pm 3.8 0.4 1.7 86 0.8 SSE 9 11 5 6 1024.5 1024.9 0.0
28/10:30pm 4.4 1.7 2.8 89 0.7 SSE 6 11 3 6 1024.4 1024.8 0.0
28/10:00pm 4.9 3.5 3.4 90 0.6 CALM 0 0 0 0 1024.5 1024.9 0.0
28/09:30pm 4.6 3.0 2.5 86 0.9 CALM 0 6 0 3 1024.7 1025.1 0.0
28/09:00pm 4.2 2.4 1.2 81 1.2 CALM 0 0 0 0 1024.7 1025.1 0.0
28/08:30pm 5.9 3.3 3.4 84 1.1 WSW 6 7 3 4 1024.8 1025.2 0.0
28/08:00pm 6.3 4.8 2.8 78 1.5 CALM 0 0 0 0 1024.9 1025.3 0.0
28/07:30pm 7.2 4.6 3.3 76 1.7 NE 6 9 3 5 1024.8 1025.2 0.0
28/07:00pm 8.1 5.6 3.9 75 1.8 N 6 7 3 4 1024.8 1025.2 0.0
28/06:30pm 9.0 6.4 4.4 73 2.1 NNE 7 9 4 5 1024.8 1025.2 0.0
28/06:00pm 9.5 6.5 4.3 70 2.3 NNE 9 9 5 5 1024.5 1024.9 0.0
28/05:30pm 10.2 7.6 4.1 66 2.8 N 7 9 4 5 1024.4 1024.8 0.0
28/05:00pm 12.5 10.0 4.7 59 3.6 NNW 7 9 4 5 1024.2 1024.6 0.0
28/04:30pm 13.5 10.6 4.6 55 4.2 NNW 9 13 5 7 1024.0 1024.4 0.0
28/04:00pm 13.9 11.1 5.0 55 4.2 NW 9 15 5 8 1023.9 1024.3 0.0
28/03:30pm 14.0 10.9 5.4 56 4.1 NNW 11 15 6 8 1023.9 1024.3 0.0
28/03:00pm 14.0 10.5 5.4 56 4.1 NW 13 19 7 10 1023.9 1024.3 0.0
28/02:30pm 14.1 11.4 5.7 57 4.1 NW 9 17 5 9 1024.0 1024.4 0.0
28/02:00pm 13.9 11.6 5.0 55 4.2 NNW 6 17 3 9 1024.0 1024.4 0.0
28/01:30pm 13.3 10.4 4.5 55 4.1 W 9 20 5 11 1024.3 1024.7 0.0
28/01:00pm 12.8 9.5 4.3 56 3.9 NNW 11 17 6 9 1024.7 1025.1 0.0
28/12:30pm 12.5 9.5 4.2 57 3.8 NNW 9 17 5 9 1025.1 1025.6 0.0
28/12:00pm 11.7 8.7 4.0 59 3.5 NNW 9 15 5 8 1025.5 1026.0 0.0
28/11:30am 11.3 8.3 4.1 61 3.3 WNW 9 15 5 8 1026.0 1026.5 0.0
28/11:00am 10.6 7.7 4.5 66 2.8 N 9 15 5 8 1026.5 1026.9 0.0
28/10:30am 10.2 8.3 4.8 69 2.5 N 4 11 2 6 1026.8 1027.2 0.0
28/10:00am 8.9 6.2 3.9 71 2.2 NW 7 11 4 6 1026.7 1027.1 0.0
28/09:30am 7.8 5.2 3.1 72 2.0 NNW 6 11 3 6 1026.7 1027.1 0.0
28/09:00am 7.3 4.7 4.1 80 1.4 E 7 11 4 6 1026.5 1026.9 0.0
28/08:30am 4.9 1.3 2.9 87 0.8 ESE 11 13 6 7 1026.4 1026.8 0.0
28/08:00am 3.2 -1.0 1.9 91 0.5 SE 13 17 7 9 1026.5 1026.9 0.0
28/07:30am 1.1 -3.0 -0.1 92 0.4 ESE 11 15 6 8 1026.2 1026.6 0.0
28/07:00am -1.5 -5.2 -2.8 91 0.4 SW 7 9 4 5 1025.4 1025.9 0.0
28/06:30am -1.8 -5.5 -3.2 90 0.4 W 7 9 4 5 1025.0 1025.4 0.0
28/06:00am -0.9 -4.6 -2.5 89 0.5 S 7 9 4 5 1024.8 1025.2 0.0
28/05:30am 0.8 -3.3 -0.5 91 0.5 ESE 11 13 6 7 1024.6 1025.0 0.0
28/05:00am 0.2 -3.1 -1.2 90 0.5 SE 6 7 3 4 1024.4 1024.8 0.0
28/04:30am 1.0 -3.1 -0.5 90 0.6 SE 11 13 6 7 1024.2 1024.6 0.0
28/04:00am 0.5 -2.4 -1.3 88 0.7 ESE 4 13 2 7 1024.0 1024.4 0.0
28/03:30am 2.5 0.7 1.2 91 0.5 CALM 0 0 0 0 1023.9 1024.3 0.0
28/03:00am 1.2 -0.9 -0.7 87 0.7 CALM 0 0 0 0 1023.6 1024.0 0.0
28/02:30am 3.2 1.4 1.3 87 0.8 CALM 0 0 0 0 1023.6 1024.0 0.0
28/02:00am 3.6 0.7 1.5 86 0.8 NE 6 7 3 4 1023.5 1023.9 0.0
28/01:30am 4.9 2.0 2.4 84 1.0 N 7 9 4 5 1023.7 1024.1 0.0
28/01:00am 4.8 3.2 2.7 86 0.9 CALM 0 0 0 0 1023.9 1024.3 0.0
28/12:30am 3.8 0.9 1.2 83 1.0 ENE 6 7 3 4 1023.8 1024.2 0.0
28/12:00am 4.8 2.0 2.0 82 1.1 NNW 6 7 3 4 1023.8 1024.2 0.0
 
Date/Time
EST
Temp
°C
App
Temp
°C
Dew
Point
°C
Rel
Hum
%
Delta-T
°C
Wind Press
QNH
hPa
Press
MSL
hPa
Rain since
9am
mm
Dir  Spd
km/h
Gust
km/h
Spd
kts
Gust
kts
27/11:30pm 5.1 2.1 1.9 80 1.3 N 7 9 4 5 1023.9 1024.3 0.0
27/11:00pm 4.9 3.2 2.1 82 1.1 CALM 0 0 0 0 1023.9 1024.3 0.0
27/10:30pm 5.1 2.1 1.8 79 1.3 NNW 7 7 4 4 1023.8 1024.2 0.0
27/10:00pm 6.2 3.4 2.3 76 1.6 NW 6 9 3 5 1023.6 1024.0 0.0
27/09:30pm 6.7 5.2 3.1 78 1.5 CALM 0 2 0 1 1023.5 1023.9 0.0
27/09:00pm 5.9 1.4 2.4 78 1.5 W 15 17 8 9 1023.0 1023.5 0.0
27/08:30pm 5.8 1.6 1.7 75 1.7 WSW 13 15 7 8 1022.9 1023.4 0.0
27/08:00pm 7.4 3.4 2.9 73 1.9 W 13 15 7 8 1022.5 1022.9 0.0
27/07:30pm 8.2 4.3 3.3 71 2.1 WSW 13 13 7 7 1022.0 1022.4 0.0
27/07:00pm 8.7 5.5 3.3 69 2.4 WSW 9 11 5 6 1021.6 1022.0 0.0
27/06:30pm 9.8 6.4 3.8 66 2.7 WNW 11 13 6 7 1021.0 1021.4 0.0
27/06:00pm 11.5 8.6 4.5 62 3.2 WNW 9 11 5 6 1020.2 1020.6 0.0
27/05:30pm 11.8 8.8 4.3 60 3.5 WNW 9 11 5 6 1019.8 1020.2 0.0
27/05:00pm 13.2 10.0 4.9 57 3.9 WNW 11 13 6 7 1019.5 1019.9 0.0
27/04:30pm 13.4 9.4 5.1 57 3.9 NW 15 20 8 11 1019.1 1019.5 0.0
27/04:00pm 13.6 8.6 4.7 55 4.2 NW 20 30 11 16 1019.0 1019.4 0.0
27/03:30pm 14.0 8.1 3.8 50 4.7 NW 24 33 13 18 1018.6 1018.9 0.0
27/03:00pm 14.5 8.2 3.6 48 5.1 WNW 26 35 14 19 1018.4 1018.7 0.0
27/02:30pm 15.7 9.9 4.4 47 5.4 NW 24 35 13 19 1018.3 1018.6 0.0
27/02:00pm 15.5 9.8 5.1 50 5.0 NW 24 35 13 19 1018.2 1018.5 0.0
27/01:30pm 15.0 9.0 3.5 46 5.4 WNW 24 37 13 20 1018.2 1018.5 0.0
27/01:00pm 14.9 8.8 4.6 50 4.9 WNW 26 37 14 20 1018.3 1018.6 0.0
27/12:30pm 15.1 8.3 5.3 52 4.7 WNW 30 41 16 22 1018.5 1018.8 0.0
27/12:00pm 14.8 7.7 5.3 53 4.6 NW 32 46 17 25 1018.7 1019.1 0.0
27/11:30am 14.2 6.9 4.5 52 4.6 NW 32 39 17 21 1018.8 1019.2 0.0
27/11:00am 13.4 8.7 5.3 58 3.9 NNW 19 26 10 14 1019.5 1019.9 0.0
27/10:30am 13.6 8.2 4.5 54 4.3 NW 22 33 12 18 1019.7 1020.1 0.0
27/10:00am 12.8 7.0 4.5 57 3.9 NNW 24 32 13 17 1019.6 1020.0 0.0
27/09:30am 10.5 5.9 5.5 71 2.3 NNW 19 24 10 13 1019.6 1020.0 0.0
27/09:00am 8.3 5.9 4.3 76 1.8 N 6 9 3 5 1019.7 1020.1 0.0
27/08:30am 6.4 4.3 4.1 85 1.0 SW 4 7 2 4 1019.9 1020.3 0.0
27/08:00am 3.9 0.9 2.3 89 0.7 ESE 7 7 4 4 1019.7 1020.1 0.0
27/07:30am 2.5 -0.6 1.3 92 0.5 S 7 9 4 5 1019.5 1019.9 0.0
27/07:00am 0.4 -4.2 -0.9 91 0.5 SSW 13 15 7 8 1019.3 1019.7 0.0
27/06:30am 1.0 -2.4 -0.3 91 0.5 ENE 7 9 4 5 1018.9 1019.3 0.0
27/06:00am 0.8 -3.0 -0.5 91 0.5 ESE 9 9 5 5 1018.9 1019.3 0.0
27/05:30am 1.2 -1.9 -0.1 91 0.5 SW 6 9 3 5 1018.9 1019.3 0.0
27/05:24am 1.1 -2.2 -0.2 91 0.5 SW 7 9 4 5 1019.0 1019.4 0.0
27/05:07am 0.7 -2.7 -0.6 91 0.5 SW 7 9 4 5 1018.9 1019.3 0.0
27/05:00am 0.7 -2.5 -0.6 91 0.5 SW 6 7 3 4 1018.9 1019.3 0.0
27/04:30am 0.7 -1.8 -0.7 90 0.5 E 2 7 1 4 1018.7 1019.1 0.0
27/04:00am 1.8 -0.1 0.5 91 0.5 CALM 0 7 0 4 1018.8 1019.2 0.0
27/03:36am 2.0 0.1 0.7 91 0.5 CALM 0 0 0 0 1018.8 1019.2 0.0
27/03:30am 2.0 0.1 0.7 91 0.5 CALM 0 0 0 0 1018.7 1019.1 0.0
27/03:03am 1.5 -0.5 0.2 91 0.5 CALM 0 0 0 0 1018.7 1019.1 0.0
27/03:00am 1.8 -0.1 0.5 91 0.5 CALM 0 0 0 0 1018.8 1019.2 0.0
27/02:51am 1.3 -0.7 -0.2 90 0.6 CALM 0 0 0 0 1018.9 1019.3 0.0
27/02:30am 1.3 -0.7 0.0 91 0.5 CALM 0 0 0 0 1019.1 1019.5 0.0
27/02:27am 1.4 -0.6 0.1 91 0.5 CALM 0 0 0 0 1019.3 1019.7 0.0
27/02:00am 1.5 -0.8 0.2 91 0.5 WSW 2 6 1 3 1019.0 1019.4 0.0
27/01:52am 1.3 -1.9 -0.2 90 0.6 WSW 6 7 3 4 1019.0 1019.4 0.0
27/01:30am 0.6 -2.7 -1.3 87 0.7 S 6 9 3 5 1019.3 1019.7 0.0
27/01:27am 0.8 -2.5 -1.1 87 0.7 S 6 9 3 5 1019.2 1019.6 0.0
27/01:00am 2.6 -0.6 0.7 87 0.7 ESE 7 9 4 5 1019.1 1019.5 0.0
27/12:30am 3.2 0.7 1.3 87 0.8 SE 4 7 2 4 1019.2 1019.6 0.0
27/12:00am 3.1 1.3 1.2 87 0.7 CALM 0 0 0 0 1019.5 1019.9 0.0
 
Date/Time
EST
Temp
°C
App
Temp
°C
Dew
Point
°C
Rel
Hum
%
Delta-T
°C
Wind Press
QNH
hPa
Press
MSL
hPa
Rain since
9am
mm
Dir  Spd
km/h
Gust
km/h
Spd
kts
Gust
kts
26/11:30pm 4.1 1.1 1.8 85 0.9 ESE 7 7 4 4 1019.5 1019.9 0.0
26/11:00pm 3.9 1.1 1.9 87 0.8 ESE 6 9 3 5 1019.3 1019.7 0.0
26/10:30pm 3.7 1.9 0.9 82 1.1 CALM 0 0 0 0 1019.4 1019.8 0.0
26/10:00pm 5.4 3.9 2.9 84 1.1 CALM 0 0 0 0 1019.0 1019.4 0.0
26/09:30pm 5.3 3.4 2.7 83 1.1 NW 2 6 1 3 1018.9 1019.3 0.0
26/09:00pm 5.7 3.1 3.4 85 1.0 W 6 7 3 4 1018.7 1019.1 0.0
26/08:30pm 4.8 1.8 2.2 83 1.1 WNW 7 9 4 5 1018.7 1019.1 0.0
26/08:00pm 5.7 2.8 2.4 79 1.4 N 7 11 4 6 1018.7 1019.1 0.0
26/07:30pm 7.6 4.5 3.6 76 1.8 NNE 9 11 5 6 1018.4 1018.7 0.0
26/07:00pm 8.0 5.2 3.3 72 2.0 NNE 7 9 4 5 1018.3 1018.6 0.0
26/06:30pm 9.0 6.8 3.2 67 2.5 N 4 7 2 4 1017.9 1018.3 0.0
26/06:00pm 10.2 7.1 3.5 63 3.0 NNW 9 9 5 5 1017.6 1018.0 0.0
26/05:30pm 11.3 8.8 3.6 59 3.5 N 6 7 3 4 1017.5 1017.9 0.0
26/05:00pm 12.1 9.0 3.6 56 3.9 NNW 9 13 5 7 1017.5 1017.9 0.0
26/04:30pm 13.5 9.7 3.8 52 4.5 NW 13 19 7 10 1017.4 1017.8 0.0
26/04:00pm 14.0 10.1 3.5 49 4.8 NW 13 20 7 11 1017.2 1017.6 0.0
26/03:30pm 14.4 9.8 3.8 49 4.9 NNW 17 20 9 11 1017.3 1017.7 0.0
26/03:00pm 14.3 9.3 3.5 48 5.0 NW 19 24 10 13 1017.3 1017.7 0.0
26/02:30pm 14.3 10.0 5.1 54 4.4 NNW 17 22 9 12 1017.5 1017.9 0.0
26/02:00pm 14.3 9.9 4.9 53 4.5 WNW 17 24 9 13 1017.9 1018.3 0.0
26/01:30pm 13.7 8.6 2.9 48 4.9 NW 19 28 10 15 1018.2 1018.5 0.0
26/01:00pm 13.7 9.3 2.9 48 4.9 NW 15 24 8 13 1018.4 1018.7 0.0
26/12:30pm 13.1 8.7 2.9 50 4.6 NW 15 24 8 13 1018.8 1019.2 0.0
26/12:00pm 12.8 8.6 4.0 55 4.1 NW 15 24 8 13 1019.3 1019.7 0.0
26/11:30am 12.0 7.2 2.5 52 4.2 NW 17 24 9 13 1019.8 1020.2 0.0
26/11:00am 11.9 8.1 3.7 57 3.7 NNW 13 17 7 9 1020.1 1020.5 0.0
26/10:30am 10.9 7.6 4.4 64 3.0 NNW 11 17 6 9 1020.5 1020.9 0.0
26/10:00am 9.8 6.7 3.5 65 2.8 N 9 13 5 7 1021.0 1021.4 0.0
26/09:30am 8.3 5.6 2.8 68 2.4 N 6 9 3 5 1021.3 1021.7 0.0
26/09:00am 7.2 5.8 3.3 76 1.7 CALM 0 0 0 0 1021.3 1021.7 0.0
26/08:30am 4.9 3.4 3.1 88 0.8 CALM 0 0 0 0 1021.3 1021.7 0.0

Other Formats:

Comma delimited format used in spreadsheet applications
http://www.bom.gov.au/fwo/IDN60801/IDN60801.95762.axf

JavaScript Object Notation format (JSON) in row-major order
http://www.bom.gov.au/fwo/IDN60801/IDN60801.95762.json